createdAt,value
2023-01-03T00:01:32.998Z,97413.81
2023-01-03T00:03:59.385Z,97413.25
2023-01-03T00:06:28.189Z,97412.63
2023-01-03T00:08:54.999Z,97409.88
2023-01-03T00:11:24.348Z,97407.38
2023-01-03T00:13:50.746Z,97403.88
2023-01-03T00:16:17.447Z,97402.53
2023-01-03T00:18:43.875Z,97413.97
2023-01-03T00:21:10.264Z,97413.63
2023-01-03T00:23:36.643Z,97406.81
2023-01-03T00:26:03.041Z,97405.19
2023-01-03T00:28:30.560Z,97408.00
2023-01-03T00:31:22.149Z,97401.47
2023-01-03T00:33:58.479Z,97398.94
2023-01-03T00:36:27.182Z,97410.75
2023-01-03T00:38:53.640Z,97409.78
2023-01-03T00:41:24.288Z,97406.69
2023-01-03T00:44:03.343Z,97402.22
2023-01-03T00:46:29.771Z,97403.13
2023-01-03T00:49:03.415Z,97407.56
2023-01-03T00:51:30.217Z,97408.31
2023-01-03T01:05:10.452Z,97401.59
2023-01-03T01:07:39.382Z,97406.16
2023-01-03T01:10:16.795Z,97412.63
2023-01-03T01:12:52.025Z,97407.34
2023-01-03T01:15:27.727Z,97401.00
2023-01-03T01:22:10.624Z,97406.34
2023-01-03T01:26:40.028Z,97394.41
2023-01-03T01:29:06.560Z,97396.84
2023-01-03T01:31:38.617Z,97399.16
2023-01-03T01:34:19.052Z,97406.53
2023-01-03T01:36:48.744Z,97415.63
2023-01-03T01:39:15.341Z,97418.09
2023-01-03T01:41:41.683Z,97421.00
2023-01-03T01:44:08.046Z,97423.75
2023-01-03T01:46:34.439Z,97426.25
2023-01-03T01:49:00.848Z,97418.63
2023-01-03T01:51:27.252Z,97415.84
2023-01-03T01:53:53.616Z,97423.47
2023-01-03T01:56:19.958Z,97423.84
2023-01-03T01:58:46.320Z,97422.31
2023-01-03T02:01:12.811Z,97421.91
2023-01-03T02:03:39.237Z,97416.72
2023-01-03T02:06:05.655Z,97419.91
2023-01-03T02:08:31.979Z,97428.28
2023-01-03T02:10:58.323Z,97423.09
2023-01-03T02:13:24.667Z,97427.50
2023-01-03T02:15:51.132Z,97421.09
2023-01-03T02:18:17.495Z,97425.88
2023-01-03T02:20:43.963Z,97423.91
2023-01-03T02:23:10.368Z,97420.72
2023-01-03T02:25:36.770Z,97423.09
2023-01-03T02:28:03.125Z,97423.09
2023-01-03T02:30:29.443Z,97425.09
2023-01-03T02:32:55.753Z,97415.56
2023-01-03T02:35:22.052Z,97423.09
2023-01-03T02:37:48.344Z,97429.84
2023-01-03T02:40:14.632Z,97423.91
2023-01-03T02:42:40.970Z,97426.28
2023-01-03T02:45:07.275Z,97423.91
2023-01-03T02:47:33.593Z,97423.91
2023-01-03T02:49:59.909Z,97418.75
2023-01-03T02:52:26.267Z,97412.78
2023-01-03T02:54:52.568Z,97415.16
2023-01-03T02:57:18.910Z,97408.78
2023-01-03T02:59:45.214Z,97419.16
2023-01-03T03:02:11.613Z,97408.81
2023-01-03T03:04:37.997Z,97410.00
2023-01-03T03:07:04.286Z,97406.44
2023-01-03T03:09:30.599Z,97415.56
2023-01-03T03:11:56.922Z,97421.50
2023-01-03T03:14:23.215Z,97420.34
2023-01-03T03:16:49.536Z,97416.34
2023-01-03T03:19:15.871Z,97422.31
2023-01-03T03:21:42.172Z,97415.16
2023-01-03T03:24:08.479Z,97417.03
2023-01-03T03:26:34.848Z,97415.34
2023-01-03T03:29:01.146Z,97417.38
2023-01-03T03:31:27.606Z,97407.06
2023-01-03T03:33:53.993Z,97398.75
2023-01-03T03:36:20.297Z,97410.28
2023-01-03T03:38:46.608Z,97409.47
2023-01-03T03:41:12.942Z,97405.91
2023-01-03T03:43:39.234Z,97407.03
2023-01-03T03:46:05.529Z,97410.56
2023-01-03T03:48:31.847Z,97407.28
2023-01-03T03:50:58.141Z,97404.97
2023-01-03T03:53:24.428Z,97407.06
2023-01-03T03:55:50.764Z,97408.34
2023-01-03T03:58:17.064Z,97405.38
2023-01-03T04:00:43.365Z,97411.38
2023-01-03T04:03:09.797Z,97399.06
2023-01-03T04:05:36.203Z,97411.06
2023-01-03T04:08:02.520Z,97408.72
2023-01-03T04:10:34.017Z,97419.09
2023-01-03T04:13:03.623Z,97418.31
2023-01-03T04:15:29.965Z,97410.34
2023-01-03T04:17:56.271Z,97403.13
2023-01-03T04:20:22.586Z,97411.34
2023-01-03T04:22:48.923Z,97410.97
2023-01-03T04:25:15.228Z,97413.28
2023-01-03T04:27:41.524Z,97413.00
2023-01-03T04:30:07.873Z,97419.41
2023-01-03T04:32:34.206Z,97419.88
2023-01-03T04:35:00.529Z,97408.34
2023-01-03T04:37:26.834Z,97413.94
2023-01-03T04:39:53.129Z,97410.34
2023-01-03T04:42:19.433Z,97415.91
2023-01-03T04:44:45.752Z,97410.34
2023-01-03T04:47:12.065Z,97408.75
2023-01-03T04:49:38.359Z,97411.13
2023-01-03T04:52:04.669Z,97406.38
2023-01-03T04:54:30.977Z,97412.34
2023-01-03T04:56:57.289Z,97427.88
2023-01-03T04:59:23.593Z,97427.06
2023-01-03T05:01:49.980Z,97432.25
2023-01-03T05:04:16.406Z,97425.84
2023-01-03T05:06:42.744Z,97414.34
2023-01-03T05:09:09.066Z,97423.09
2023-01-03T05:11:35.384Z,97434.63
2023-01-03T05:14:01.689Z,97442.59
2023-01-03T05:16:28.044Z,97438.59
2023-01-03T05:18:54.372Z,97446.94
2023-01-03T05:21:20.682Z,97453.72
2023-01-03T05:23:46.974Z,97444.56
2023-01-03T05:26:13.263Z,97448.13
2023-01-03T05:28:39.572Z,97453.31
2023-01-03T05:31:05.863Z,97453.28
2023-01-03T05:33:32.173Z,97456.00
2023-01-03T05:35:58.558Z,97450.44
2023-01-03T05:38:24.859Z,97455.22
2023-01-03T05:40:51.194Z,97458.34
2023-01-03T05:43:17.511Z,97460.38
2023-01-03T05:45:43.850Z,97462.72
2023-01-03T05:48:10.172Z,97458.75
2023-01-03T05:50:36.516Z,97458.81
2023-01-03T05:53:02.836Z,97453.28
2023-01-03T05:55:29.153Z,97458.88
2023-01-03T05:57:55.477Z,97462.44
2023-01-03T06:00:21.789Z,97472.81
2023-01-03T06:02:48.179Z,97475.59
2023-01-03T06:05:14.561Z,97468.41
2023-01-03T06:07:40.851Z,97463.22
2023-01-03T06:10:07.144Z,97470.00
2023-01-03T06:12:33.453Z,97478.78
2023-01-03T06:14:59.761Z,97474.78
2023-01-03T06:17:26.102Z,97472.00
2023-01-03T06:19:52.447Z,97474.38
2023-01-03T06:22:18.734Z,97477.97
2023-01-03T06:24:45.037Z,97478.69
2023-01-03T06:27:11.373Z,97482.66
2023-01-03T06:29:37.669Z,97480.69
2023-01-03T06:32:09.084Z,97494.59
2023-01-03T06:34:36.161Z,97494.63
2023-01-03T06:37:02.723Z,97493.44
2023-01-03T06:39:29.078Z,97486.69
2023-01-03T06:41:55.422Z,97488.19
2023-01-03T06:44:21.719Z,97493.31
2023-01-03T06:46:48.103Z,97498.16
2023-01-03T06:49:14.479Z,97496.19
2023-01-03T06:51:40.768Z,97489.38
2023-01-03T06:54:07.058Z,97490.25
2023-01-03T06:56:33.369Z,97490.63
2023-01-03T06:58:59.678Z,97496.22
2023-01-03T07:01:26.112Z,97506.50
2023-01-03T07:03:52.543Z,97501.34
2023-01-03T07:06:18.908Z,97497.25
2023-01-03T07:08:48.412Z,97511.97
2023-01-03T07:11:15.110Z,97508.00
2023-01-03T07:13:41.441Z,97509.63
2023-01-03T07:16:07.847Z,97508.13
2023-01-03T07:18:34.198Z,97510.09
2023-01-03T07:21:00.509Z,97515.66
2023-01-03T07:23:26.803Z,97523.56
2023-01-03T07:25:53.124Z,97513.50
2023-01-03T07:28:19.428Z,97521.50
2023-01-03T07:30:45.852Z,97516.81
2023-01-03T07:33:12.313Z,97515.94
2023-01-03T07:35:38.618Z,97515.13
2023-01-03T07:38:04.911Z,97524.28
2023-01-03T07:40:31.216Z,97523.50
2023-01-03T07:42:57.527Z,97531.13
2023-01-03T07:45:23.818Z,97527.88
2023-01-03T07:47:50.179Z,97533.13
2023-01-03T07:50:16.483Z,97526.28
2023-01-03T07:52:42.804Z,97529.44
2023-01-03T07:55:09.141Z,97538.97
2023-01-03T07:57:35.440Z,97539.06
2023-01-03T08:00:01.741Z,97544.25
2023-01-03T08:02:28.125Z,97547.88
2023-01-03T08:04:54.532Z,97554.28
2023-01-03T08:07:20.872Z,97552.19
2023-01-03T08:09:47.187Z,97556.50
2023-01-03T08:12:13.481Z,97552.09
2023-01-03T08:14:39.782Z,97561.44
2023-01-03T08:17:06.134Z,97561.84
2023-01-03T08:19:32.437Z,97567.03
2023-01-03T08:21:58.723Z,97567.81
2023-01-03T08:24:25.023Z,97566.97
2023-01-03T08:26:51.341Z,97569.78
2023-01-03T08:29:17.647Z,97568.47
2023-01-03T08:31:44.045Z,97577.56
2023-01-03T08:34:16.116Z,97577.97
2023-01-03T08:36:45.047Z,97590.69
2023-01-03T08:39:11.353Z,97581.88
2023-01-03T08:41:37.646Z,97585.63
2023-01-03T08:44:03.975Z,97589.66
2023-01-03T08:46:30.301Z,97588.81
2023-01-03T08:48:56.664Z,97584.00
2023-01-03T08:51:23.016Z,97593.97
2023-01-03T08:53:49.315Z,97587.19
2023-01-03T08:56:15.625Z,97592.75
2023-01-03T08:58:41.953Z,97603.19
2023-01-03T09:01:08.400Z,97597.63
2023-01-03T09:03:34.956Z,97594.78
2023-01-03T09:06:01.326Z,97598.34
2023-01-03T09:08:27.613Z,97592.88
2023-01-03T09:10:53.912Z,97598.78
2023-01-03T09:13:20.270Z,97604.78
2023-01-03T09:15:46.604Z,97611.94
2023-01-03T09:18:12.938Z,97610.22
2023-01-03T09:20:39.263Z,97612.31
2023-01-03T09:23:05.588Z,97616.19
2023-01-03T09:25:36.988Z,97617.81
2023-01-03T09:28:03.953Z,97611.44
2023-01-03T09:30:30.250Z,97620.69
2023-01-03T09:32:56.568Z,97617.97
2023-01-03T09:35:22.909Z,97618.38
2023-01-03T09:37:49.275Z,97624.34
2023-01-03T09:40:15.583Z,97627.88
2023-01-03T09:42:41.918Z,97633.09
2023-01-03T09:45:08.316Z,97637.47
2023-01-03T09:47:34.633Z,97639.44
2023-01-03T09:52:47.237Z,97644.63
2023-01-03T09:55:13.599Z,97640.25
2023-01-03T09:57:39.900Z,97641.44
2023-01-03T10:00:06.204Z,97645.06
2023-01-03T10:02:32.626Z,97655.00
2023-01-03T10:04:59.006Z,97649.03
2023-01-03T10:07:25.326Z,97647.03
2023-01-03T10:09:51.656Z,97646.63
2023-01-03T10:12:17.980Z,97641.31
2023-01-03T10:14:44.292Z,97653.31
2023-01-03T10:17:10.648Z,97647.41
2023-01-03T10:19:36.947Z,97647.84
2023-01-03T10:22:03.251Z,97653.28
2023-01-03T10:24:29.589Z,97644.97
2023-01-03T10:26:55.905Z,97643.31
2023-01-03T10:29:22.222Z,97643.75
2023-01-03T10:31:48.598Z,97637.47
2023-01-03T10:34:14.945Z,97633.88
2023-01-03T10:36:41.262Z,97635.44
2023-01-03T10:39:07.597Z,97624.28
2023-01-03T10:41:33.899Z,97631.03
2023-01-03T10:44:00.238Z,97633.09
2023-01-03T10:46:26.610Z,97632.22
2023-01-03T10:49:25.846Z,97634.97
2023-01-03T10:51:42.995Z,97638.63
2023-01-03T10:54:09.594Z,97633.41
2023-01-03T10:56:35.907Z,97634.69
2023-01-03T10:59:02.288Z,97631.88
2023-01-03T11:01:28.756Z,97629.50
2023-01-03T11:03:55.152Z,97625.09
2023-01-03T11:06:21.498Z,97623.50
2023-01-03T11:08:47.871Z,97623.50
2023-01-03T11:11:14.188Z,97613.88
2023-01-03T11:13:40.510Z,97614.72
2023-01-03T11:16:06.821Z,97614.72
2023-01-03T11:18:33.161Z,97609.56
2023-01-03T11:20:59.486Z,97603.53
2023-01-03T11:23:25.803Z,97611.09
2023-01-03T11:25:52.119Z,97604.41
2023-01-03T11:28:18.462Z,97609.94
2023-01-03T11:30:44.769Z,97605.16
2023-01-03T11:33:11.081Z,97610.34
2023-01-03T11:35:37.426Z,97602.81
2023-01-03T11:38:03.758Z,97601.50
2023-01-03T11:40:30.088Z,97605.88
2023-01-03T11:42:56.434Z,97604.28
2023-01-03T11:45:22.742Z,97608.31
2023-01-03T11:47:49.053Z,97599.56
2023-01-03T11:50:15.482Z,97601.88
2023-01-03T11:52:41.846Z,97605.44
2023-01-03T11:55:08.153Z,97601.06
2023-01-03T11:57:34.512Z,97603.41
2023-01-03T12:00:00.846Z,97603.16
2023-01-03T12:02:27.229Z,97603.56
2023-01-03T12:04:53.680Z,97599.53
2023-01-03T12:07:47.478Z,97603.53
2023-01-03T12:10:06.253Z,97596.22
2023-01-03T12:12:32.560Z,97593.81
2023-01-03T12:15:00.620Z,97591.41
2023-01-03T12:17:27.203Z,97591.47
2023-01-03T12:19:53.516Z,97587.88
2023-01-03T12:22:19.837Z,97583.41
2023-01-03T12:24:46.256Z,97593.72
2023-01-03T12:27:12.595Z,97591.88
2023-01-03T12:29:38.921Z,97591.03
2023-01-03T12:32:05.248Z,97584.78
2023-01-03T12:34:31.566Z,97585.16
2023-01-03T12:36:57.880Z,97585.91
2023-01-03T12:39:30.884Z,97584.34
2023-01-03T12:41:59.157Z,97577.81
2023-01-03T12:44:25.514Z,97573.03
2023-01-03T12:46:51.921Z,97583.81
2023-01-03T12:49:18.324Z,97574.97
2023-01-03T12:51:44.709Z,97580.56
2023-01-03T12:54:11.031Z,97578.94
2023-01-03T12:56:37.374Z,97586.00
2023-01-03T12:59:03.707Z,97582.78
2023-01-03T13:01:30.151Z,97592.09
2023-01-03T13:03:56.566Z,97594.38
2023-01-03T13:06:23.009Z,97586.47
2023-01-03T13:08:49.374Z,97580.94
2023-01-03T13:11:15.696Z,97580.47
2023-01-03T13:13:42.073Z,97581.09
2023-01-03T13:16:08.430Z,97582.56
2023-01-03T13:18:34.806Z,97575.44
2023-01-03T13:21:01.230Z,97574.66
2023-01-03T13:23:27.596Z,97572.59
2023-01-03T13:25:53.968Z,97574.59
2023-01-03T13:28:20.422Z,97581.53
2023-01-03T13:30:46.920Z,97580.31
2023-01-03T13:33:13.345Z,97580.84
2023-01-03T13:35:39.747Z,97579.53
2023-01-03T13:38:06.176Z,97576.06
2023-01-03T13:41:15.442Z,97580.00
2023-01-03T13:43:18.916Z,97570.59
2023-01-03T13:45:45.318Z,97581.03
2023-01-03T13:48:11.680Z,97577.47
2023-01-03T13:50:38.049Z,97580.19
2023-01-03T13:53:04.396Z,97579.63
2023-01-03T13:55:30.767Z,97580.94
2023-01-03T13:57:57.129Z,97577.81
2023-01-03T14:00:23.485Z,97575.50
2023-01-03T14:02:54.573Z,97569.84
2023-01-03T14:05:21.108Z,97572.66
2023-01-03T14:07:47.570Z,97574.25
2023-01-03T14:10:13.985Z,97577.84
2023-01-03T14:12:50.424Z,97577.44
2023-01-03T14:15:25.549Z,97575.47
2023-01-03T14:17:53.024Z,97579.47
2023-01-03T14:20:19.493Z,97584.63
2023-01-03T14:22:47.656Z,97581.34
2023-01-03T14:25:14.342Z,97581.53
2023-01-03T14:27:40.899Z,97582.84
2023-01-03T14:30:08.455Z,97580.94
2023-01-03T14:32:35.222Z,97580.94
2023-01-03T14:35:17.248Z,97579.66
2023-01-03T14:37:43.858Z,97578.31
2023-01-03T14:40:11.687Z,97586.19
2023-01-03T14:42:38.300Z,97581.84
2023-01-03T14:45:06.757Z,97587.84
2023-01-03T14:47:33.239Z,97598.38
2023-01-03T14:49:59.995Z,97590.03
2023-01-03T14:52:29.850Z,97586.03
2023-01-03T14:55:01.782Z,97593.44
2023-01-03T14:57:32.301Z,97600.97
2023-01-03T15:00:06.262Z,97606.25
2023-01-03T15:02:34.638Z,97599.41
2023-01-03T15:05:04.390Z,97593.78
2023-01-03T15:10:27.059Z,97593.09
2023-01-03T15:13:04.518Z,97597.09
2023-01-03T15:15:35.216Z,97598.75
2023-01-03T15:18:10.242Z,97602.72
2023-01-03T15:20:54.577Z,97601.53
2023-01-03T15:23:31.078Z,97612.34
2023-01-03T15:26:05.765Z,97610.38
2023-01-03T15:28:36.571Z,97615.16
2023-01-03T15:31:09.993Z,97609.97
2023-01-03T15:33:45.847Z,97618.00
2023-01-03T15:36:20.680Z,97623.53
2023-01-03T15:38:52.634Z,97619.47
2023-01-03T15:41:22.836Z,97622.63
2023-01-03T15:43:58.456Z,97621.34
2023-01-03T15:46:29.342Z,97620.97
2023-01-03T15:48:59.702Z,97623.25
2023-01-03T15:51:37.208Z,97631.09
2023-01-03T15:56:52.274Z,97629.75
2023-01-03T15:59:27.820Z,97634.00
2023-01-03T16:02:00.010Z,97639.06
2023-01-03T16:04:36.745Z,97638.72
2023-01-03T16:10:04.912Z,97638.25
2023-01-03T16:12:38.335Z,97628.84
2023-01-03T16:15:10.668Z,97626.84
2023-01-03T16:17:38.727Z,97637.75
2023-01-03T16:20:08.393Z,97640.00
2023-01-03T16:28:07.060Z,97648.94
2023-01-03T16:30:48.802Z,97641.34
2023-01-03T16:33:27.977Z,97643.66
2023-01-03T16:36:03.298Z,97642.59
2023-01-03T16:41:28.175Z,97646.06
2023-01-03T16:44:04.027Z,97643.91
2023-01-03T16:49:21.026Z,97651.91
2023-01-03T16:54:37.283Z,97653.41
2023-01-03T16:57:17.395Z,97652.75
2023-01-03T17:10:58.826Z,97670.84
2023-01-03T17:13:41.657Z,97675.38
2023-01-03T17:18:56.991Z,97679.16
2023-01-03T17:24:31.188Z,97670.53
2023-01-03T17:29:58.139Z,97666.94
2023-01-03T17:35:14.292Z,97666.66
